createdAt,value
2018-05-04T00:01:43.940Z,7.16
2018-05-04T00:04:09.953Z,7.15
2018-05-04T00:06:36.006Z,7.12
2018-05-04T00:09:02.069Z,7.11
2018-05-04T00:11:28.094Z,7.11
2018-05-04T00:13:54.112Z,7.07
2018-05-04T00:16:20.161Z,7.05
2018-05-04T00:18:46.194Z,7.04
2018-05-04T00:21:12.184Z,7.01
2018-05-04T00:23:38.185Z,6.97
2018-05-04T00:26:04.290Z,6.96
2018-05-04T00:28:30.292Z,6.94
2018-05-04T00:30:56.276Z,6.95
2018-05-04T00:33:22.296Z,6.92
2018-05-04T00:35:48.281Z,6.91
2018-05-04T00:38:14.370Z,6.88
2018-05-04T00:40:40.313Z,6.87
2018-05-04T00:43:06.332Z,6.84
2018-05-04T00:45:32.389Z,6.82
2018-05-04T00:47:58.398Z,6.81
2018-05-04T00:50:24.401Z,6.78
2018-05-04T00:52:50.448Z,6.76
2018-05-04T00:55:16.456Z,6.73
2018-05-04T00:57:42.506Z,6.73
2018-05-04T01:00:08.523Z,6.73
2018-05-04T01:02:34.580Z,6.72
2018-05-04T01:05:00.591Z,6.70
2018-05-04T01:07:26.591Z,6.70
2018-05-04T01:09:52.584Z,6.70
2018-05-04T01:12:18.585Z,6.68
2018-05-04T01:14:44.579Z,6.65
2018-05-04T01:17:10.589Z,6.63
2018-05-04T01:19:36.612Z,6.62
2018-05-04T01:22:02.634Z,6.59
2018-05-04T01:24:28.706Z,6.54
2018-05-04T01:26:54.706Z,6.54
2018-05-04T01:29:20.708Z,6.52
2018-05-04T01:31:46.745Z,6.50
2018-05-04T01:34:12.937Z,6.49
2018-05-04T01:36:38.944Z,6.48
2018-05-04T01:39:04.977Z,6.46
2018-05-04T01:41:30.998Z,6.45
2018-05-04T01:43:57.181Z,6.45
2018-05-04T01:46:23.182Z,6.41
2018-05-04T01:48:49.177Z,6.40
2018-05-04T01:51:15.220Z,6.36
2018-05-04T01:53:41.282Z,6.34
2018-05-04T01:56:07.280Z,6.32
2018-05-04T01:58:33.408Z,6.32
2018-05-04T02:00:59.721Z,6.29
2018-05-04T02:03:26.107Z,6.29
2018-05-04T02:05:52.090Z,6.26
2018-05-04T02:08:18.328Z,6.25
2018-05-04T02:10:44.328Z,6.24
2018-05-04T02:13:10.343Z,6.23
2018-05-04T02:15:36.349Z,6.21
2018-05-04T02:18:02.342Z,6.19
2018-05-04T02:20:28.365Z,6.16
2018-05-04T02:22:54.348Z,6.15
2018-05-04T02:25:20.401Z,6.12
2018-05-04T02:27:46.394Z,6.14
2018-05-04T02:30:13.185Z,6.14
2018-05-04T02:32:39.381Z,6.12
2018-05-04T02:35:05.587Z,6.10
2018-05-04T02:37:31.562Z,6.09
2018-05-04T02:39:57.577Z,6.07
2018-05-04T02:42:23.588Z,6.07
2018-05-04T02:44:49.707Z,6.04
2018-05-04T02:47:15.726Z,6.03
2018-05-04T02:49:41.732Z,6.02
2018-05-04T02:52:08.642Z,5.98
2018-05-04T02:54:34.689Z,5.99
2018-05-04T02:57:00.677Z,5.99
2018-05-04T02:59:26.704Z,5.98
2018-05-04T03:01:52.742Z,5.96
2018-05-04T03:04:18.761Z,5.94
2018-05-04T03:06:44.761Z,5.93
2018-05-04T03:09:10.773Z,5.88
2018-05-04T03:11:36.818Z,5.87
2018-05-04T03:14:03.058Z,5.86
2018-05-04T03:16:29.776Z,5.84
2018-05-04T03:18:55.784Z,5.82
2018-05-04T03:21:21.784Z,5.81
2018-05-04T03:23:48.414Z,5.78
2018-05-04T03:26:14.421Z,5.76
2018-05-04T03:28:40.419Z,5.73
2018-05-04T03:31:06.439Z,5.73
2018-05-04T03:33:32.490Z,5.72
2018-05-04T03:35:58.499Z,5.70
2018-05-04T03:38:24.508Z,5.68
2018-05-04T03:40:50.803Z,5.68
2018-05-04T03:43:16.814Z,5.67
2018-05-04T03:45:42.883Z,5.65
2018-05-04T03:48:08.870Z,5.65
2018-05-04T03:50:34.916Z,5.64
2018-05-04T03:53:00.975Z,5.61
2018-05-04T03:55:26.989Z,5.60
2018-05-04T03:58:05.461Z,5.59
2018-05-04T04:00:43.563Z,5.60
2018-05-04T04:03:21.656Z,5.60
2018-05-04T04:05:47.709Z,5.62
2018-05-04T04:08:13.711Z,5.59
2018-05-04T04:10:39.757Z,5.57
2018-05-04T04:13:05.777Z,5.58
2018-05-04T04:15:31.755Z,5.59
2018-05-04T04:17:57.753Z,5.60
2018-05-04T04:20:23.821Z,5.61
2018-05-04T04:22:49.843Z,5.61
2018-05-04T04:25:15.850Z,5.60
2018-05-04T04:27:41.827Z,5.62
2018-05-04T04:30:07.832Z,5.63
2018-05-04T04:32:33.841Z,5.64
2018-05-04T04:34:59.932Z,5.65
2018-05-04T04:37:25.961Z,5.67
2018-05-04T04:39:51.949Z,5.69
2018-05-04T04:42:17.949Z,5.70
2018-05-04T04:44:43.937Z,5.73
2018-05-04T04:47:09.972Z,5.78
2018-05-04T04:49:35.995Z,5.82
2018-05-04T04:52:02.014Z,5.86
2018-05-04T04:54:35.110Z,5.91
2018-05-04T04:57:01.173Z,5.95
2018-05-04T04:59:27.220Z,6.00
2018-05-04T05:01:53.540Z,6.08
2018-05-04T05:04:19.697Z,6.14
2018-05-04T05:06:45.696Z,6.21
2018-05-04T05:09:11.691Z,6.29
2018-05-04T05:11:37.728Z,6.39
2018-05-04T05:14:03.726Z,6.48
2018-05-04T05:16:29.705Z,6.57
2018-05-04T05:18:56.238Z,6.65
2018-05-04T05:21:22.259Z,6.74
2018-05-04T05:23:48.624Z,6.85
2018-05-04T05:26:14.640Z,6.96
2018-05-04T05:28:40.634Z,7.08
2018-05-04T05:31:06.655Z,7.19
2018-05-04T05:33:32.658Z,7.31
2018-05-04T05:35:58.720Z,7.43
2018-05-04T05:38:24.828Z,7.56
2018-05-04T05:40:50.850Z,7.70
2018-05-04T05:43:16.836Z,7.85
2018-05-04T05:45:43.161Z,7.98
2018-05-04T05:48:09.329Z,8.12
2018-05-04T05:50:35.685Z,8.25
2018-05-04T05:53:01.760Z,8.37
2018-05-04T05:55:27.836Z,8.50
2018-05-04T05:57:53.849Z,8.64
2018-05-04T06:00:20.030Z,8.77
2018-05-04T06:02:46.048Z,8.88
2018-05-04T06:05:12.053Z,9.01
2018-05-04T06:07:38.093Z,9.14
2018-05-04T06:10:04.116Z,9.29
2018-05-04T06:12:30.189Z,9.45
2018-05-04T06:14:56.251Z,9.63
2018-05-04T06:17:22.235Z,9.76
2018-05-04T06:19:48.309Z,9.88
2018-05-04T06:22:14.514Z,10.01
2018-05-04T06:24:40.525Z,10.12
2018-05-04T06:27:06.516Z,10.23
2018-05-04T06:29:32.569Z,10.32
2018-05-04T06:31:58.600Z,10.46
2018-05-04T06:34:24.680Z,10.62
2018-05-04T06:36:50.716Z,10.71
2018-05-04T06:39:16.753Z,10.82
2018-05-04T06:41:42.775Z,10.96
2018-05-04T06:44:08.796Z,11.07
2018-05-04T06:46:34.907Z,11.24
2018-05-04T06:49:00.910Z,11.38
2018-05-04T06:51:27.024Z,11.51
2018-05-04T06:53:53.147Z,11.64
2018-05-04T06:56:19.114Z,11.78
2018-05-04T06:58:45.156Z,11.89
2018-05-04T07:01:11.829Z,11.96
2018-05-04T07:03:37.832Z,12.04
2018-05-04T07:06:03.940Z,12.19
2018-05-04T07:08:29.971Z,12.36
2018-05-04T07:10:56.039Z,12.54
2018-05-04T07:13:22.112Z,12.68
2018-05-04T07:15:48.141Z,12.86
2018-05-04T07:18:14.266Z,13.03
2018-05-04T07:20:40.331Z,13.19
2018-05-04T07:23:06.390Z,13.39
2018-05-04T07:25:32.424Z,13.61
2018-05-04T07:27:58.561Z,14.02
2018-05-04T07:30:24.619Z,14.61
2018-05-04T07:32:50.656Z,15.19
2018-05-04T07:35:16.673Z,15.45
2018-05-04T07:37:42.889Z,15.78
2018-05-04T07:40:08.993Z,16.05
2018-05-04T07:42:35.038Z,16.32
2018-05-04T07:45:01.091Z,16.40
2018-05-04T07:47:27.184Z,16.41
2018-05-04T07:49:53.267Z,16.54
2018-05-04T07:52:19.417Z,16.70
2018-05-04T07:54:45.438Z,16.95
2018-05-04T07:57:11.480Z,17.03
2018-05-04T07:59:37.564Z,17.29
2018-05-04T08:02:03.692Z,17.48
2018-05-04T08:04:29.724Z,17.71
2018-05-04T08:06:55.774Z,17.77
2018-05-04T08:09:21.824Z,17.59
2018-05-04T08:11:49.682Z,17.27
2018-05-04T08:14:15.813Z,17.16
2018-05-04T08:16:41.837Z,16.94
2018-05-04T08:19:07.919Z,16.68
2018-05-04T08:21:33.970Z,16.87
2018-05-04T08:24:00.072Z,16.90
2018-05-04T08:26:26.043Z,17.22
2018-05-04T08:28:52.061Z,17.65
2018-05-04T08:31:18.122Z,18.03
2018-05-04T08:33:44.184Z,17.79
2018-05-04T08:36:10.220Z,17.38
2018-05-04T08:38:36.305Z,17.21
2018-05-04T08:41:02.339Z,17.19
2018-05-04T08:43:29.201Z,17.13
2018-05-04T08:45:55.292Z,16.93
2018-05-04T08:48:23.944Z,16.76
2018-05-04T08:50:50.012Z,16.55
2018-05-04T08:53:16.027Z,16.24
2018-05-04T08:55:42.139Z,16.29
2018-05-04T08:58:08.156Z,16.22
2018-05-04T09:00:34.222Z,16.25
2018-05-04T09:03:00.240Z,16.26
2018-05-04T09:05:26.420Z,16.21
2018-05-04T09:07:52.357Z,16.10
2018-05-04T09:10:18.851Z,15.97
2018-05-04T09:12:44.943Z,15.86
2018-05-04T09:15:11.733Z,15.79
2018-05-04T09:17:37.739Z,15.89
2018-05-04T09:20:03.812Z,15.97
2018-05-04T09:22:29.841Z,16.06
2018-05-04T09:24:55.885Z,16.12
2018-05-04T09:27:21.940Z,16.35
2018-05-04T09:29:47.999Z,16.49
2018-05-04T09:32:14.023Z,16.44
2018-05-04T09:34:40.060Z,16.57
2018-05-04T09:37:06.089Z,16.64
2018-05-04T09:39:32.150Z,16.57
2018-05-04T09:41:58.195Z,16.65
2018-05-04T09:44:24.184Z,16.68
2018-05-04T09:46:50.217Z,16.73
2018-05-04T09:49:16.306Z,16.66
2018-05-04T09:51:42.433Z,16.66
2018-05-04T09:54:08.521Z,16.68
2018-05-04T09:56:34.622Z,16.82
2018-05-04T09:59:00.786Z,16.98
2018-05-04T10:01:26.802Z,17.20
2018-05-04T10:03:52.825Z,17.45
2018-05-04T10:08:51.565Z,18.26
2018-05-04T10:11:17.613Z,18.54
2018-05-04T10:13:44.195Z,19.22
2018-05-04T10:16:10.341Z,20.58
2018-05-04T10:18:36.333Z,21.57
2018-05-04T10:21:02.397Z,21.94
2018-05-04T10:23:28.416Z,22.40
2018-05-04T10:25:54.440Z,22.95
2018-05-04T10:28:20.485Z,22.78
2018-05-04T10:30:46.492Z,23.22
2018-05-04T10:33:12.549Z,24.49
2018-05-04T10:35:38.599Z,25.50
2018-05-04T10:38:04.711Z,25.95
2018-05-04T10:40:30.816Z,26.90
2018-05-04T10:42:56.846Z,27.39
2018-05-04T10:45:22.925Z,27.74
2018-05-04T10:47:48.968Z,28.13
2018-05-04T10:50:15.092Z,28.55
2018-05-04T10:52:41.133Z,28.71
2018-05-04T10:55:07.229Z,28.95
2018-05-04T10:57:33.339Z,29.42
2018-05-04T10:59:59.581Z,29.46
2018-05-04T11:02:25.669Z,29.54
2018-05-04T11:04:51.774Z,30.01
2018-05-04T11:07:17.794Z,30.60
2018-05-04T11:09:43.785Z,31.01
2018-05-04T11:12:09.936Z,31.31
2018-05-04T11:14:35.931Z,31.67
2018-05-04T11:17:01.966Z,31.73
2018-05-04T11:19:28.087Z,32.29
2018-05-04T11:21:54.129Z,32.38
2018-05-04T11:24:20.144Z,32.65
2018-05-04T11:26:46.473Z,32.83
2018-05-04T11:29:12.485Z,32.77
2018-05-04T11:31:38.511Z,32.98
2018-05-04T11:34:04.521Z,33.10
2018-05-04T11:36:30.541Z,33.34
2018-05-04T11:38:56.583Z,33.23
2018-05-04T11:41:22.637Z,33.18
2018-05-04T11:43:48.818Z,33.62
2018-05-04T11:46:14.940Z,33.66
2018-05-04T11:48:41.106Z,33.71
2018-05-04T11:51:07.152Z,33.90
2018-05-04T11:53:33.273Z,34.34
2018-05-04T11:55:59.371Z,34.45
2018-05-04T11:58:25.423Z,34.57
2018-05-04T12:00:51.444Z,34.12
2018-05-04T12:03:17.440Z,34.18
2018-05-04T12:05:44.311Z,34.47
2018-05-04T12:08:10.326Z,34.26
2018-05-04T12:10:36.359Z,34.43
2018-05-04T12:13:02.416Z,34.90
2018-05-04T12:15:28.464Z,34.97
2018-05-04T12:20:27.363Z,34.96
2018-05-04T12:22:54.160Z,34.58
2018-05-04T12:25:20.122Z,34.70
2018-05-04T12:27:46.135Z,34.98
2018-05-04T12:30:12.189Z,34.94
2018-05-04T12:32:38.367Z,35.22
2018-05-04T12:35:04.407Z,35.08
2018-05-04T12:37:30.475Z,34.54
2018-05-04T12:39:56.511Z,34.59
2018-05-04T12:42:22.525Z,34.09
2018-05-04T12:44:48.528Z,33.74
2018-05-04T12:47:14.540Z,33.50
2018-05-04T12:49:40.557Z,33.34
2018-05-04T12:52:06.599Z,33.33
2018-05-04T12:54:33.408Z,33.17
2018-05-04T12:56:59.497Z,32.98
2018-05-04T12:59:25.583Z,33.00
2018-05-04T13:01:51.562Z,32.62
2018-05-04T13:04:17.580Z,31.98
2018-05-04T13:06:43.653Z,31.65
2018-05-04T13:09:09.872Z,31.00
2018-05-04T13:11:35.931Z,30.64
2018-05-04T13:14:02.055Z,30.59
2018-05-04T13:16:28.209Z,30.22
2018-05-04T13:18:54.248Z,29.73
2018-05-04T13:21:20.308Z,28.92
2018-05-04T13:23:46.386Z,29.08
2018-05-04T13:26:12.494Z,28.98
2018-05-04T13:28:38.599Z,28.70
2018-05-04T13:31:04.624Z,28.50
2018-05-04T13:33:30.751Z,27.71
2018-05-04T13:35:57.316Z,27.24
2018-05-04T13:38:23.446Z,26.97
2018-05-04T13:40:49.458Z,26.83
2018-05-04T13:43:22.839Z,26.78
2018-05-04T13:45:48.884Z,26.44
2018-05-04T13:48:14.907Z,26.40
2018-05-04T13:50:41.072Z,26.22
2018-05-04T13:53:07.139Z,25.62
2018-05-04T13:55:33.452Z,25.60
2018-05-04T13:57:59.401Z,25.57
2018-05-04T14:00:25.422Z,25.59
2018-05-04T14:02:51.635Z,25.39
2018-05-04T14:05:17.778Z,25.36
2018-05-04T14:07:43.797Z,25.07
2018-05-04T14:10:09.803Z,24.96
2018-05-04T14:12:35.973Z,24.80
2018-05-04T14:15:02.018Z,24.57
2018-05-04T14:17:28.077Z,24.23
2018-05-04T14:19:54.104Z,23.79
2018-05-04T14:22:20.124Z,25.35
2018-05-04T14:24:46.196Z,27.09
2018-05-04T14:27:12.272Z,28.10
2018-05-04T14:29:38.278Z,29.02
2018-05-04T14:32:04.270Z,29.98
2018-05-04T14:34:30.327Z,30.61
2018-05-04T14:36:56.363Z,31.23
2018-05-04T14:39:22.371Z,31.82
2018-05-04T14:41:48.405Z,31.48
2018-05-04T14:44:14.460Z,32.44
2018-05-04T14:46:40.490Z,32.98
2018-05-04T14:49:06.533Z,33.02
2018-05-04T14:51:32.608Z,33.14
2018-05-04T14:53:58.626Z,33.31
2018-05-04T14:56:24.857Z,33.23
2018-05-04T14:58:50.920Z,33.09
2018-05-04T15:01:16.985Z,33.68
2018-05-04T15:03:43.041Z,33.88
2018-05-04T15:06:09.097Z,33.38
2018-05-04T15:08:35.118Z,34.08
2018-05-04T15:11:01.133Z,34.27
2018-05-04T15:13:27.250Z,33.76
2018-05-04T15:15:53.319Z,33.11
2018-05-04T15:18:19.372Z,33.70
2018-05-04T15:20:45.386Z,33.81
2018-05-04T15:23:11.477Z,33.48
2018-05-04T15:25:37.597Z,32.93
2018-05-04T15:28:03.635Z,33.05
2018-05-04T15:30:29.689Z,33.23
2018-05-04T15:32:55.833Z,33.81
2018-05-04T15:35:22.651Z,33.53
2018-05-04T15:41:00.349Z,32.48
2018-05-04T15:43:26.356Z,32.06
2018-05-04T15:45:52.435Z,31.91
2018-05-04T15:48:24.346Z,31.72
2018-05-04T15:53:50.967Z,31.12
2018-05-04T15:56:17.179Z,29.68
2018-05-04T15:58:43.345Z,28.66
2018-05-04T16:01:09.436Z,27.70
2018-05-04T16:03:35.458Z,27.04
2018-05-04T16:06:09.424Z,28.58
2018-05-04T16:08:35.577Z,29.58
2018-05-04T16:11:02.481Z,29.86
2018-05-04T16:13:28.674Z,30.36
2018-05-04T16:15:54.868Z,30.32
2018-05-04T16:18:20.931Z,28.69
2018-05-04T16:20:47.114Z,26.85
2018-05-04T16:23:13.251Z,25.53
2018-05-04T16:25:39.375Z,24.51
2018-05-04T16:28:05.458Z,23.63
2018-05-04T16:30:31.602Z,22.96
2018-05-04T16:32:57.744Z,22.43
2018-05-04T16:35:23.826Z,22.02
2018-05-04T16:37:49.940Z,21.45
2018-05-04T16:40:15.979Z,21.08
2018-05-04T16:42:42.003Z,20.69
2018-05-04T16:45:08.139Z,20.47
2018-05-04T16:47:41.106Z,20.24
2018-05-04T16:50:07.282Z,20.03
2018-05-04T16:52:33.407Z,19.78
2018-05-04T16:54:59.430Z,19.65
2018-05-04T16:57:25.476Z,19.40
2018-05-04T16:59:51.558Z,19.28
2018-05-04T17:02:17.713Z,19.01
2018-05-04T17:04:43.766Z,18.98
2018-05-04T17:07:09.820Z,18.73
2018-05-04T17:09:36.053Z,18.52
2018-05-04T17:12:02.126Z,18.40
2018-05-04T17:14:28.189Z,18.24
2018-05-04T17:16:54.232Z,18.12
2018-05-04T17:19:20.287Z,17.86
2018-05-04T17:21:46.382Z,17.52
2018-05-04T17:24:12.560Z,17.51
2018-05-04T17:26:38.645Z,17.36
2018-05-04T17:29:04.717Z,17.25
2018-05-04T17:31:30.809Z,17.13
2018-05-04T17:33:56.859Z,17.04
2018-05-04T17:36:22.933Z,16.93
2018-05-04T17:38:49.059Z,16.84
2018-05-04T17:41:15.113Z,16.73
2018-05-04T17:43:41.971Z,16.64
2018-05-04T17:46:07.979Z,16.58
2018-05-04T17:48:34.077Z,16.50
2018-05-04T17:51:00.127Z,16.45
2018-05-04T17:53:26.168Z,16.38
2018-05-04T17:55:52.208Z,16.30
2018-05-04T17:58:18.262Z,16.25
2018-05-04T18:00:44.300Z,16.26
2018-05-04T18:03:10.444Z,16.20
2018-05-04T18:05:36.469Z,16.13
2018-05-04T18:08:02.490Z,16.07
2018-05-04T18:10:29.325Z,16.00
2018-05-04T18:12:56.020Z,15.99
2018-05-04T18:15:22.051Z,15.97
2018-05-04T18:17:48.081Z,15.85
2018-05-04T18:20:14.104Z,15.82
2018-05-04T18:22:40.120Z,15.76
2018-05-04T18:25:06.136Z,15.70
2018-05-04T18:27:32.190Z,15.64
2018-05-04T18:29:58.236Z,15.60
2018-05-04T18:32:24.248Z,15.51
2018-05-04T18:34:50.333Z,15.46
2018-05-04T18:37:16.368Z,15.37
2018-05-04T18:39:42.381Z,15.29
2018-05-04T18:42:08.417Z,15.24
2018-05-04T18:44:34.516Z,15.22
2018-05-04T18:47:00.639Z,15.15
2018-05-04T18:49:26.678Z,15.10
2018-05-04T18:51:53.147Z,15.07
2018-05-04T18:54:19.183Z,14.99
2018-05-04T18:56:45.461Z,14.92
2018-05-04T18:59:11.489Z,14.86
2018-05-04T19:01:37.602Z,14.82
2018-05-04T19:04:03.709Z,14.72
2018-05-04T19:06:29.732Z,14.64
2018-05-04T19:08:55.733Z,14.57
2018-05-04T19:11:21.928Z,14.49
2018-05-04T19:13:48.129Z,14.40
2018-05-04T19:16:14.256Z,14.33
2018-05-04T19:18:40.300Z,14.28
2018-05-04T19:21:06.314Z,14.21
2018-05-04T19:23:32.347Z,14.14
2018-05-04T19:25:58.437Z,14.08
2018-05-04T19:28:24.586Z,14.02
2018-05-04T19:30:50.572Z,13.95
2018-05-04T19:33:16.589Z,13.87
2018-05-04T19:35:42.939Z,13.79
2018-05-04T19:38:09.053Z,13.73
2018-05-04T19:40:35.204Z,13.72
2018-05-04T19:43:01.372Z,13.65
2018-05-04T19:45:27.460Z,13.58
2018-05-04T19:47:53.544Z,13.54
2018-05-04T19:50:19.689Z,13.50
2018-05-04T19:52:45.794Z,13.42
2018-05-04T19:55:11.895Z,13.35
2018-05-04T19:57:37.948Z,13.29
2018-05-04T20:00:04.072Z,13.27
2018-05-04T20:02:30.302Z,13.24
2018-05-04T20:04:56.502Z,13.22
2018-05-04T20:07:22.630Z,13.20
2018-05-04T20:09:50.468Z,13.17
2018-05-04T20:12:16.580Z,13.14
2018-05-04T20:14:42.617Z,13.09
2018-05-04T20:17:08.717Z,13.03
2018-05-04T20:19:34.757Z,12.97
2018-05-04T20:22:00.836Z,12.93
2018-05-04T20:24:26.903Z,12.91
2018-05-04T20:26:53.138Z,12.87
2018-05-04T20:29:19.335Z,12.83
2018-05-04T20:31:46.077Z,12.78
2018-05-04T20:34:12.252Z,12.74
2018-05-04T20:36:38.441Z,12.72
2018-05-04T20:39:04.551Z,12.65
2018-05-04T20:41:31.268Z,12.65
2018-05-04T20:43:57.408Z,12.62
2018-05-04T20:46:23.539Z,12.59
2018-05-04T20:48:49.707Z,12.53
2018-05-04T20:51:15.826Z,12.48
2018-05-04T20:53:41.900Z,12.46
2018-05-04T20:56:07.941Z,12.44
2018-05-04T20:58:33.961Z,12.38
2018-05-04T21:00:59.977Z,12.37
2018-05-04T21:03:26.004Z,12.34
2018-05-04T21:05:52.080Z,12.32
2018-05-04T21:08:18.182Z,12.31
2018-05-04T21:10:44.283Z,12.30
2018-05-04T21:13:10.674Z,12.26
2018-05-04T21:15:36.908Z,12.26
2018-05-04T21:18:02.968Z,12.25
2018-05-04T21:20:28.996Z,12.26
2018-05-04T21:22:55.096Z,12.26
2018-05-04T21:25:21.233Z,12.24
2018-05-04T21:27:47.342Z,12.24
2018-05-04T21:30:13.475Z,12.24
2018-05-04T21:32:39.491Z,12.25
2018-05-04T21:35:05.530Z,12.27
2018-05-04T21:37:31.944Z,12.26
2018-05-04T21:39:58.074Z,12.24
2018-05-04T21:42:24.075Z,12.24
2018-05-04T21:44:50.112Z,12.22
2018-05-04T21:47:16.304Z,12.23
2018-05-04T21:49:42.362Z,12.21
2018-05-04T21:52:08.515Z,12.16
2018-05-04T21:54:34.788Z,12.14
2018-05-04T21:57:00.833Z,12.16
2018-05-04T21:59:26.964Z,12.15
2018-05-04T22:01:53.003Z,12.15
2018-05-04T22:04:19.049Z,12.11
2018-05-04T22:06:45.172Z,12.10
2018-05-04T22:09:11.476Z,12.09
2018-05-04T22:11:37.841Z,12.08
2018-05-04T22:14:04.062Z,12.07
2018-05-04T22:16:30.159Z,12.05
2018-05-04T22:18:56.395Z,11.99
2018-05-04T22:21:22.466Z,11.96
2018-05-04T22:23:48.572Z,11.91
2018-05-04T22:26:14.641Z,11.87
2018-05-04T22:28:40.880Z,11.86
2018-05-04T22:31:07.065Z,11.79
2018-05-04T22:33:33.190Z,11.78
2018-05-04T22:35:59.253Z,11.74
2018-05-04T22:38:25.302Z,11.71
2018-05-04T22:40:51.416Z,11.68
2018-05-04T22:43:17.510Z,11.67
2018-05-04T22:45:43.574Z,11.63
2018-05-04T22:48:09.602Z,11.62
2018-05-04T22:50:35.776Z,11.59
2018-05-04T22:53:01.905Z,11.58
2018-05-04T22:55:27.972Z,11.58
2018-05-04T22:57:53.989Z,11.58
2018-05-04T23:00:20.137Z,11.54
2018-05-04T23:02:46.208Z,11.52
2018-05-04T23:05:12.259Z,11.53
2018-05-04T23:07:38.335Z,11.52
2018-05-04T23:10:04.417Z,11.51
2018-05-04T23:12:30.455Z,11.50
2018-05-04T23:14:56.469Z,11.49
2018-05-04T23:17:22.486Z,11.45
2018-05-04T23:19:48.477Z,11.44
2018-05-04T23:22:26.744Z,11.42
2018-05-04T23:24:53.421Z,11.43
2018-05-04T23:27:19.531Z,11.42
2018-05-04T23:29:45.577Z,11.41
2018-05-04T23:32:11.623Z,11.39
2018-05-04T23:34:37.753Z,11.38
2018-05-04T23:37:03.924Z,11.38
2018-05-04T23:39:30.046Z,11.37
2018-05-04T23:41:56.136Z,11.35
2018-05-04T23:44:22.156Z,11.34
2018-05-04T23:46:48.136Z,11.33
2018-05-04T23:49:14.177Z,11.33
2018-05-04T23:51:40.196Z,11.33
2018-05-04T23:54:06.343Z,11.32
2018-05-04T23:56:32.404Z,11.31
2018-05-04T23:58:58.413Z,11.33
